Time;durP1;ratioP1;P1;durP2;ratioP2;P2;SDS_P1;SDS_P2;PMS_P1;PMS_P2;Temp;Humidity;BMP_temperature;BMP_pressure;BME280_temperature;BME280_humidity;BME280_pressure;Samples;Min_cycle;Max_cycle;Signal;HPM_P1;HPM_P2
2021/06/07 00:01:04;;;;;;;1.75;1.30;;;20.50;56.80;;;;;;4933194;28;20657;-85
2021/06/07 00:03:30;;;;;;;2.50;1.48;;;20.50;56.90;;;;;;4970275;28;20038;-84
2021/06/07 00:05:56;;;;;;;1.50;1.10;;;20.50;56.90;;;;;;4956204;28;20038;-83
2021/06/07 00:08:22;;;;;;;1.48;1.17;;;20.40;56.90;;;;;;4956180;28;20369;-84
2021/06/07 00:10:48;;;;;;;1.77;1.40;;;20.40;56.90;;;;;;4951584;28;20035;-84
2021/06/07 00:13:14;;;;;;;1.67;1.33;;;20.40;56.90;;;;;;4952532;28;20028;-84
2021/06/07 00:15:40;;;;;;;1.85;1.58;;;20.30;56.90;;;;;;4962750;28;20038;-84
2021/06/07 00:18:06;;;;;;;2.25;1.20;;;20.30;57.00;;;;;;4956444;28;20041;-84
2021/06/07 00:20:37;;;;;;;1.30;1.20;;;20.30;57.10;;;;;;4961074;28;20043;-84
2021/06/07 00:23:03;;;;;;;1.77;1.30;;;20.20;57.10;;;;;;4972380;28;20031;-84
2021/06/07 00:25:29;;;;;;;1.42;1.30;;;20.20;57.10;;;;;;4955033;28;20119;-84
2021/06/07 00:27:55;;;;;;;1.42;1.05;;;20.10;57.10;;;;;;4956424;28;20027;-85
2021/06/07 00:30:21;;;;;;;1.23;1.13;;;20.10;57.80;;;;;;4955956;28;20439;-84
2021/06/07 00:32:47;;;;;;;1.50;1.38;;;20.10;57.20;;;;;;4958505;28;20035;-84
2021/06/07 00:35:18;;;;;;;1.40;1.30;;;20.10;57.30;;;;;;4946308;28;20034;-85
2021/06/07 00:37:44;;;;;;;1.83;1.40;;;20.00;57.30;;;;;;4970251;28;20107;-84
2021/06/07 00:40:11;;;;;;;1.40;1.30;;;20.00;57.30;;;;;;4955194;28;20058;-83
2021/06/07 00:42:36;;;;;;;2.13;1.30;;;19.90;57.30;;;;;;4963283;28;20055;-84
2021/06/07 00:45:06;;;;;;;1.63;1.40;;;19.90;57.40;;;;;;4948056;28;20058;-84
2021/06/07 00:47:33;;;;;;;2.58;1.60;;;19.80;57.40;;;;;;4976168;28;20022;-84
2021/06/07 00:49:59;;;;;;;1.75;1.48;;;19.80;57.40;;;;;;4957836;28;20058;-83
2021/06/07 00:52:25;;;;;;;2.00;1.77;;;19.80;57.40;;;;;;4981409;28;20429;-83
2021/06/07 00:54:51;;;;;;;2.25;1.55;;;19.70;57.40;;;;;;4947894;28;20049;-83
2021/06/07 00:57:16;;;;;;;1.92;1.40;;;19.70;57.50;;;;;;4966175;28;20475;-83
2021/06/07 00:59:42;;;;;;;1.95;1.30;;;19.70;57.50;;;;;;4960733;28;20051;-84
2021/06/07 01:02:09;;;;;;;2.38;1.60;;;19.70;57.50;;;;;;4964565;28;20033;-84
2021/06/07 01:04:35;;;;;;;1.42;1.20;;;19.60;57.60;;;;;;4961138;28;20035;-84
2021/06/07 01:07:01;;;;;;;1.33;1.23;;;19.60;57.60;;;;;;4957192;28;20024;-84
2021/06/07 01:09:27;;;;;;;1.50;1.40;;;19.60;57.60;;;;;;4934886;28;20034;-83
2021/06/07 01:11:53;;;;;;;1.27;1.17;;;19.60;57.70;;;;;;4957032;28;20389;-84
2021/06/07 01:14:19;;;;;;;1.45;1.27;;;19.50;57.70;;;;;;4959516;28;20030;-84
2021/06/07 01:16:44;;;;;;;1.30;1.20;;;19.50;57.70;;;;;;4969294;28;20142;-85
2021/06/07 01:19:11;;;;;;;1.58;1.25;;;19.40;57.70;;;;;;4953969;28;20043;-84
2021/06/07 01:21:38;;;;;;;1.75;1.48;;;19.40;57.70;;;;;;4975346;28;20035;-84
2021/06/07 01:24:04;;;;;;;1.40;1.30;;;19.40;57.70;;;;;;4981168;28;20119;-83
2021/06/07 01:26:30;;;;;;;1.40;1.30;;;19.30;57.70;;;;;;4956574;28;20043;-84
2021/06/07 01:28:56;;;;;;;2.30;1.45;;;19.30;57.70;;;;;;4981538;28;20031;-84
2021/06/07 01:31:22;;;;;;;1.58;1.15;;;19.30;57.80;;;;;;4981525;28;20023;-84
2021/06/07 01:33:51;;;;;;;1.73;1.30;;;19.30;57.80;;;;;;4970761;28;20023;-84
2021/06/07 01:36:17;;;;;;;1.58;1.23;;;19.20;57.80;;;;;;4973847;28;20030;-84
2021/06/07 01:38:43;;;;;;;1.67;1.17;;;19.20;57.80;;;;;;4994482;28;20035;-84
2021/06/07 01:41:13;;;;;;;1.73;1.40;;;19.10;57.80;;;;;;4934629;28;20542;-83
2021/06/07 01:43:39;;;;;;;1.90;1.38;;;19.10;57.90;;;;;;4969870;28;20104;-83
2021/06/07 01:46:05;;;;;;;1.77;1.35;;;19.10;57.90;;;;;;4960026;28;20074;-84
2021/06/07 01:48:32;;;;;;;2.33;1.40;;;19.10;57.90;;;;;;4959074;28;20043;-84
2021/06/07 01:51:00;;;;;;;1.48;1.25;;;19.00;57.80;;;;;;4957141;28;20035;-83
2021/06/07 01:53:27;;;;;;;1.40;1.30;;;19.00;57.90;;;;;;4965854;28;20035;-84
2021/06/07 01:55:58;;;;;;;1.35;1.25;;;19.00;57.90;;;;;;4961515;28;20038;-84
2021/06/07 01:58:25;;;;;;;1.77;1.30;;;18.90;57.90;;;;;;4973235;28;20634;-84
2021/06/07 02:01:07;;;;;;;1.45;1.33;;;18.90;57.90;;;;;;4952927;29;20027;-84
2021/06/07 02:03:32;;;;;;;1.50;1.02;;;18.90;58.00;;;;;;4966978;28;20023;-84
2021/06/07 02:06:01;;;;;;;1.20;1.10;;;18.90;57.90;;;;;;4966549;28;20376;-84
2021/06/07 02:08:31;;;;;;;1.10;1.00;;;18.80;57.90;;;;;;4998847;28;20037;-85
2021/06/07 02:11:00;;;;;;;1.60;1.23;;;18.80;57.90;;;;;;4981149;28;20487;-84
2021/06/07 02:13:27;;;;;;;1.88;1.08;;;18.80;58.00;;;;;;4996888;28;20034;-84
2021/06/07 02:15:57;;;;;;;1.25;1.15;;;18.80;58.00;;;;;;4968036;28;20026;-83
2021/06/07 02:18:23;;;;;;;1.30;1.13;;;18.70;58.10;;;;;;4986536;28;20034;-85
2021/06/07 02:20:48;;;;;;;1.70;1.05;;;18.70;58.10;;;;;;4963193;28;20034;-85
2021/06/07 02:23:14;;;;;;;1.20;1.10;;;18.70;58.10;;;;;;4956891;28;20062;-86
2021/06/07 02:25:40;;;;;;;1.48;1.13;;;18.60;58.10;;;;;;4950912;28;20059;-85
2021/06/07 02:28:14;;;;;;;1.00;1.00;;;18.60;58.10;;;;;;4956704;28;20035;-84
2021/06/07 02:30:41;;;;;;;1.10;1.10;;;18.60;58.20;;;;;;4958887;28;20480;-84
2021/06/07 02:33:07;;;;;;;0.90;0.90;;;18.50;58.10;;;;;;4973943;28;20774;-84
2021/06/07 02:35:33;;;;;;;1.63;1.17;;;18.50;58.10;;;;;;4947383;28;20034;-85
2021/06/07 02:37:59;;;;;;;1.63;0.98;;;18.50;58.10;;;;;;4971327;28;20038;-85
2021/06/07 02:40:29;;;;;;;1.98;1.15;;;18.50;58.20;;;;;;4966031;28;20079;-85
2021/06/07 02:42:57;;;;;;;2.17;1.13;;;18.40;58.10;;;;;;4979605;28;20046;-85
2021/06/07 02:45:24;;;;;;;1.20;1.10;;;18.40;58.10;;;;;;4965840;28;20030;-85
2021/06/07 02:47:52;;;;;;;1.10;1.00;;;18.40;58.20;;;;;;4989308;28;20031;-85
2021/06/07 02:50:23;;;;;;;1.30;1.02;;;18.30;58.20;;;;;;4964954;28;20027;-85
2021/06/07 02:52:49;;;;;;;1.00;0.95;;;18.30;58.20;;;;;;4968485;28;20798;-86
2021/06/07 02:55:20;;;;;;;1.35;1.17;;;18.30;58.20;;;;;;4941750;28;20506;-85
2021/06/07 02:57:47;;;;;;;1.75;1.08;;;18.30;58.30;;;;;;4973398;28;22019;-85
2021/06/07 03:00:16;;;;;;;1.23;1.10;;;18.20;58.30;;;;;;4941309;28;20069;-85
2021/06/07 03:02:43;;;;;;;1.15;1.00;;;18.20;58.30;;;;;;4970900;28;20067;-84
2021/06/07 03:05:10;;;;;;;1.30;1.20;;;18.20;58.30;;;;;;4967959;28;20053;-85
2021/06/07 03:07:35;;;;;;;1.13;1.02;;;18.20;58.30;;;;;;4941413;28;20050;-85
2021/06/07 03:10:03;;;;;;;1.30;1.15;;;18.20;58.40;;;;;;4952916;29;20058;-84
2021/06/07 03:12:29;;;;;;;1.05;0.90;;;18.10;58.40;;;;;;4957144;28;20041;-84
2021/06/07 03:14:54;;;;;;;1.20;1.00;;;18.10;58.30;;;;;;4943662;28;20473;-85
2021/06/07 03:17:20;;;;;;;1.10;1.00;;;18.10;58.40;;;;;;4948545;28;20166;-84
2021/06/07 03:19:46;;;;;;;1.27;1.17;;;18.10;58.40;;;;;;4941552;28;20086;-85
2021/06/07 03:22:12;;;;;;;1.40;1.10;;;18.00;58.30;;;;;;4957320;28;20034;-84
2021/06/07 03:24:38;;;;;;;1.20;1.10;;;18.00;58.40;;;;;;4968108;28;20042;-85
2021/06/07 03:27:04;;;;;;;0.95;0.95;;;18.00;58.40;;;;;;4954013;28;20086;-84
2021/06/07 03:29:30;;;;;;;1.35;1.23;;;17.90;58.40;;;;;;4969655;28;20038;-84
2021/06/07 03:31:56;;;;;;;0.98;0.98;;;18.00;58.50;;;;;;4954779;28;20035;-85
2021/06/07 03:34:21;;;;;;;0.90;0.90;;;17.90;58.50;;;;;;4963061;28;20123;-84
2021/06/07 03:36:47;;;;;;;1.00;1.00;;;17.90;58.50;;;;;;4937988;28;20038;-84
2021/06/07 03:39:13;;;;;;;1.30;1.20;;;17.90;58.60;;;;;;4942266;28;20515;-85
2021/06/07 03:41:39;;;;;;;1.15;1.05;;;17.80;58.50;;;;;;4944192;28;20031;-85
2021/06/07 03:44:05;;;;;;;0.90;0.90;;;17.80;58.60;;;;;;4972295;28;20062;-85
2021/06/07 03:46:30;;;;;;;1.27;1.00;;;17.80;58.60;;;;;;4952461;28;20026;-86
2021/06/07 03:48:56;;;;;;;0.93;0.93;;;17.80;58.60;;;;;;4948346;28;20380;-85
2021/06/07 03:51:22;;;;;;;1.20;1.10;;;17.80;58.60;;;;;;4957009;28;20027;-85
2021/06/07 03:53:48;;;;;;;1.38;0.98;;;17.80;58.70;;;;;;4940479;28;20034;-85
2021/06/07 03:56:14;;;;;;;1.33;1.10;;;17.70;58.60;;;;;;4949789;28;20085;-84
2021/06/07 03:58:39;;;;;;;1.45;1.00;;;17.70;58.60;;;;;;4953836;28;20032;-84
2021/06/07 04:01:05;;;;;;;1.10;1.10;;;17.70;58.70;;;;;;4936594;28;20047;-85
2021/06/07 04:03:33;;;;;;;1.20;1.10;;;17.70;58.70;;;;;;4983223;28;20036;-84
2021/06/07 04:05:59;;;;;;;1.00;0.90;;;17.70;58.80;;;;;;4945786;28;20039;-85
2021/06/07 04:08:27;;;;;;;1.88;1.10;;;17.70;58.80;;;;;;4970930;28;20053;-84
2021/06/07 04:10:53;;;;;;;1.30;1.20;;;17.60;58.80;;;;;;4949948;28;20038;-86
2021/06/07 04:13:19;;;;;;;1.23;1.08;;;17.60;58.80;;;;;;4973456;28;20670;-85
2021/06/07 04:15:45;;;;;;;1.10;0.98;;;17.60;58.80;;;;;;4957650;28;20083;-85
2021/06/07 04:18:11;;;;;;;1.35;1.10;;;17.50;58.80;;;;;;4958127;28;20043;-84
2021/06/07 04:20:36;;;;;;;1.00;1.00;;;17.50;58.90;;;;;;4980273;28;20035;-84
2021/06/07 04:23:02;;;;;;;1.50;1.05;;;17.50;58.90;;;;;;4965449;28;20460;-86
2021/06/07 04:25:29;;;;;;;1.05;0.95;;;17.50;59.00;;;;;;4977140;28;20171;-85
2021/06/07 04:27:57;;;;;;;1.63;1.02;;;17.50;59.00;;;;;;4976824;28;20023;-85
2021/06/07 04:30:25;;;;;;;0.90;0.90;;;17.50;59.10;;;;;;4975047;28;20073;-86
2021/06/07 04:32:52;;;;;;;1.17;1.00;;;17.50;59.10;;;;;;4964775;28;20043;-84
2021/06/07 04:35:20;;;;;;;1.10;1.00;;;17.40;59.10;;;;;;4985241;28;20045;-84
2021/06/07 04:37:53;;;;;;;1.40;1.20;;;17.40;59.20;;;;;;4976140;28;20030;-85
2021/06/07 04:40:31;;;;;;;0.90;0.90;;;17.40;59.20;;;;;;4965429;28;20035;-84
2021/06/07 04:42:58;;;;;;;0.88;0.88;;;17.40;59.30;;;;;;4968547;28;20134;-85
2021/06/07 04:45:26;;;;;;;1.50;1.00;;;17.40;59.20;;;;;;4946419;28;20030;-88
2021/06/07 04:47:52;;;;;;;0.93;0.93;;;17.40;59.20;;;;;;4968088;28;20026;-87
2021/06/07 04:50:19;;;;;;;0.90;0.90;;;17.40;59.30;;;;;;4948187;28;20038;-87
2021/06/07 04:53:01;;;;;;;1.58;1.15;;;17.40;59.30;;;;;;4978678;28;20053;-87
2021/06/07 04:55:32;;;;;;;0.90;0.90;;;17.40;59.30;;;;;;4986054;28;20027;-89
2021/06/07 04:57:59;;;;;;;1.38;0.98;;;17.40;59.20;;;;;;4983839;28;20039;-89
2021/06/07 05:00:27;;;;;;;1.20;1.10;;;17.30;59.20;;;;;;4981474;28;20034;-89
2021/06/07 05:02:55;;;;;;;1.10;1.00;;;17.40;59.30;;;;;;4968845;28;20015;-91
2021/06/07 05:05:21;;;;;;;1.42;0.90;;;17.40;59.30;;;;;;4966353;28;20023;-89
2021/06/07 05:07:47;;;;;;;1.20;1.10;;;17.30;59.30;;;;;;4966992;28;20082;-88
2021/06/07 05:10:14;;;;;;;1.17;1.08;;;17.30;59.30;;;;;;4971203;28;20077;-88
2021/06/07 05:12:41;;;;;;;1.10;1.10;;;17.30;59.30;;;;;;4976613;28;20130;-90
2021/06/07 05:15:08;;;;;;;1.15;1.00;;;17.30;59.30;;;;;;4991958;28;20102;-88
2021/06/07 05:17:38;;;;;;;1.27;1.00;;;17.30;59.30;;;;;;4957309;29;20038;-87
2021/06/07 05:20:06;;;;;;;0.88;0.88;;;17.30;59.30;;;;;;4972819;28;20039;-86
2021/06/07 05:22:32;;;;;;;1.02;1.00;;;17.30;59.30;;;;;;4972830;28;20023;-84
2021/06/07 05:24:58;;;;;;;1.20;1.10;;;17.30;59.30;;;;;;4954659;28;20047;-86
2021/06/07 05:27:24;;;;;;;1.33;1.00;;;17.30;59.20;;;;;;4966429;28;20027;-81
2021/06/07 05:29:50;;;;;;;0.98;0.95;;;17.30;59.30;;;;;;4974701;28;20038;-82
2021/06/07 05:32:16;;;;;;;0.85;0.85;;;17.30;59.30;;;;;;4968249;28;20707;-81
2021/06/07 05:34:41;;;;;;;1.05;0.98;;;17.30;59.30;;;;;;4969903;28;20031;-82
2021/06/07 05:37:07;;;;;;;1.20;0.90;;;17.30;59.30;;;;;;4971313;28;20034;-85
2021/06/07 05:39:33;;;;;;;0.98;0.98;;;17.30;59.30;;;;;;4994577;28;20491;-82
2021/06/07 05:41:59;;;;;;;0.85;0.85;;;17.30;59.30;;;;;;4956827;28;20023;-82
2021/06/07 05:44:25;;;;;;;2.20;1.00;;;17.30;59.30;;;;;;4951056;28;20443;-84
2021/06/07 05:46:51;;;;;;;1.00;1.00;;;17.30;59.30;;;;;;4956015;28;20031;-85
2021/06/07 05:49:18;;;;;;;1.10;1.00;;;17.30;59.30;;;;;;4944545;28;20035;-85
2021/06/07 05:51:44;;;;;;;0.98;0.98;;;17.30;59.30;;;;;;4961072;28;20031;-86
2021/06/07 05:54:10;;;;;;;1.05;0.90;;;17.30;59.30;;;;;;4970729;28;20498;-86
2021/06/07 05:56:37;;;;;;;1.02;1.00;;;17.30;59.30;;;;;;4951755;28;20089;-86
2021/06/07 05:59:04;;;;;;;0.88;0.80;;;17.40;59.40;;;;;;4966719;28;20063;-84
2021/06/07 06:01:31;;;;;;;1.08;0.98;;;17.30;59.30;;;;;;4959254;28;20031;-84
2021/06/07 06:03:58;;;;;;;1.25;1.08;;;17.30;59.30;;;;;;4975111;28;20035;-88
2021/06/07 06:06:24;;;;;;;0.80;0.80;;;17.40;59.30;;;;;;4974448;28;20023;-84
2021/06/07 06:08:51;;;;;;;1.02;0.93;;;17.30;59.30;;;;;;4959520;28;20065;-86
2021/06/07 06:11:18;;;;;;;1.25;1.10;;;17.40;59.30;;;;;;4986335;28;20035;-85
2021/06/07 06:13:45;;;;;;;1.10;1.00;;;17.40;59.30;;;;;;4966161;28;20118;-86
2021/06/07 06:16:10;;;;;;;1.50;1.02;;;17.40;59.30;;;;;;4954722;28;20046;-85
2021/06/07 06:18:37;;;;;;;1.00;0.93;;;17.40;59.30;;;;;;4966938;28;20034;-88
2021/06/07 06:21:05;;;;;;;1.13;0.90;;;17.40;59.30;;;;;;4929361;28;20043;-85
2021/06/07 06:23:30;;;;;;;1.20;0.90;;;17.40;59.30;;;;;;4942917;28;20423;-86
2021/06/07 06:25:56;;;;;;;0.80;0.80;;;17.40;59.30;;;;;;4954095;28;20038;-86
2021/06/07 06:28:22;;;;;;;0.88;0.80;;;17.40;59.30;;;;;;4973717;28;20269;-89
2021/06/07 06:30:48;;;;;;;0.77;0.77;;;17.40;59.30;;;;;;4950775;28;20134;-88
2021/06/07 06:33:14;;;;;;;0.90;0.90;;;17.40;59.20;;;;;;4964396;28;20023;-88
2021/06/07 06:35:40;;;;;;;0.80;0.80;;;17.40;59.20;;;;;;4971206;28;20061;-87
2021/06/07 06:38:06;;;;;;;1.08;0.80;;;17.40;59.20;;;;;;4950060;28;20443;-85
2021/06/07 06:40:35;;;;;;;1.90;1.30;;;17.40;59.20;;;;;;4957618;28;20066;-85
2021/06/07 06:43:01;;;;;;;1.15;1.05;;;17.50;59.20;;;;;;4972799;28;20034;-86
2021/06/07 06:45:27;;;;;;;1.02;0.98;;;17.50;59.20;;;;;;4973016;28;20062;-88
2021/06/07 06:47:57;;;;;;;1.08;0.98;;;17.50;59.20;;;;;;4956950;28;20035;-87
2021/06/07 06:50:28;;;;;;;0.73;0.73;;;17.50;59.10;;;;;;4956918;28;20034;-88
2021/06/07 06:52:54;;;;;;;1.08;0.85;;;17.50;59.10;;;;;;4942338;28;20041;-87
2021/06/07 06:55:20;;;;;;;1.00;0.90;;;17.50;59.60;;;;;;4952363;28;20023;-86
2021/06/07 06:57:46;;;;;;;0.80;0.80;;;17.50;58.90;;;;;;4951350;28;20038;-87
2021/06/07 07:00:12;;;;;;;1.48;1.02;;;17.60;59.00;;;;;;4956204;28;20034;-87
2021/06/07 07:02:38;;;;;;;0.80;0.80;;;17.60;58.90;;;;;;4972637;28;20083;-86
2021/06/07 07:05:05;;;;;;;0.90;0.85;;;17.60;58.90;;;;;;4930205;28;20061;-86
2021/06/07 07:07:32;;;;;;;0.88;0.77;;;17.60;58.90;;;;;;4923706;28;20031;-86
2021/06/07 07:09:57;;;;;;;1.10;0.98;;;17.60;58.80;;;;;;4928333;29;20038;-88
2021/06/07 07:12:26;;;;;;;2.10;0.90;;;17.60;58.70;;;;;;4971450;28;20031;-88
2021/06/07 07:14:53;;;;;;;2.05;0.90;;;17.70;58.80;;;;;;4972943;28;20033;-81
2021/06/07 07:17:19;;;;;;;0.95;0.90;;;17.70;58.70;;;;;;4969608;28;20027;-80
2021/06/07 07:19:46;;;;;;;0.80;0.80;;;17.70;58.70;;;;;;4954296;28;20514;-81
2021/06/07 07:22:14;;;;;;;0.93;0.85;;;17.70;58.70;;;;;;4945707;28;20058;-82
2021/06/07 07:24:43;;;;;;;0.80;0.80;;;17.70;58.70;;;;;;4932568;28;20446;-82
2021/06/07 07:27:11;;;;;;;1.10;1.00;;;17.80;58.70;;;;;;4923542;28;20498;-81
2021/06/07 07:29:38;;;;;;;0.80;0.80;;;17.80;58.70;;;;;;4951804;28;20054;-81
2021/06/07 07:32:06;;;;;;;0.90;0.90;;;17.90;58.70;;;;;;4960450;28;20062;-82
2021/06/07 07:34:33;;;;;;;1.10;0.90;;;17.90;58.60;;;;;;4950962;28;20090;-81
2021/06/07 07:36:59;;;;;;;1.10;0.80;;;18.00;58.50;;;;;;4948910;28;20030;-81
2021/06/07 07:39:25;;;;;;;0.82;0.82;;;18.00;58.50;;;;;;4949152;28;20106;-82
2021/06/07 07:41:51;;;;;;;0.98;0.80;;;18.10;58.40;;;;;;4951093;28;20130;-82
2021/06/07 07:44:17;;;;;;;0.90;0.90;;;18.20;58.30;;;;;;4953096;28;20055;-82
2021/06/07 07:46:43;;;;;;;1.08;0.90;;;18.20;58.30;;;;;;4972149;28;20533;-83
2021/06/07 07:49:08;;;;;;;0.77;0.77;;;18.30;58.30;;;;;;4936912;29;20035;-81
2021/06/07 07:51:34;;;;;;;0.77;0.77;;;18.30;58.20;;;;;;4955963;28;21126;-82
2021/06/07 07:54:00;;;;;;;0.82;0.82;;;18.40;58.10;;;;;;4966950;28;20387;-82
2021/06/07 07:56:26;;;;;;;0.90;0.90;;;18.50;58.10;;;;;;4934728;28;20456;-81
2021/06/07 07:58:52;;;;;;;0.95;0.88;;;18.50;58.00;;;;;;4923194;29;20031;-82
2021/06/07 08:01:17;;;;;;;1.10;1.00;;;18.60;57.90;;;;;;4966424;28;20057;-82
2021/06/07 08:03:43;;;;;;;1.83;1.08;;;18.70;57.90;;;;;;4972013;28;20088;-81
2021/06/07 08:06:09;;;;;;;0.82;0.82;;;18.70;57.80;;;;;;4953020;28;20028;-81
2021/06/07 08:08:35;;;;;;;1.42;0.88;;;18.80;57.80;;;;;;4952634;28;20058;-81
2021/06/07 08:11:01;;;;;;;1.00;0.95;;;18.90;57.70;;;;;;4947904;28;20031;-84
2021/06/07 08:13:27;;;;;;;1.13;0.80;;;19.00;57.70;;;;;;4943020;28;20023;-82
2021/06/07 08:15:54;;;;;;;0.85;0.80;;;19.00;57.50;;;;;;4955973;28;20035;-83
2021/06/07 08:18:20;;;;;;;0.80;0.80;;;19.10;57.50;;;;;;4971792;28;20030;-82
2021/06/07 08:20:46;;;;;;;1.42;1.10;;;19.20;57.40;;;;;;4968776;28;20027;-83
2021/06/07 08:23:12;;;;;;;1.65;0.90;;;19.30;57.30;;;;;;4912802;29;20036;-83
2021/06/07 08:25:38;;;;;;;1.50;0.93;;;19.30;57.20;;;;;;4948149;28;20073;-82
2021/06/07 08:28:05;;;;;;;0.85;0.85;;;19.50;57.30;;;;;;4943517;28;20027;-82
2021/06/07 08:30:32;;;;;;;0.80;0.80;;;19.50;57.20;;;;;;4941395;28;20113;-82
2021/06/07 08:32:58;;;;;;;1.67;1.00;;;19.60;57.10;;;;;;4964445;28;20117;-82
2021/06/07 08:35:24;;;;;;;1.00;0.90;;;19.70;57.00;;;;;;4955908;28;20591;-82
2021/06/07 08:37:50;;;;;;;1.08;0.80;;;19.80;57.00;;;;;;4928916;28;20055;-83
2021/06/07 08:40:17;;;;;;;0.80;0.80;;;19.80;56.90;;;;;;4933437;29;20399;-84
2021/06/07 08:42:44;;;;;;;0.70;0.70;;;19.90;56.80;;;;;;4940021;28;20038;-82
2021/06/07 08:45:12;;;;;;;1.38;0.98;;;20.00;56.80;;;;;;4944090;28;20053;-83
2021/06/07 08:47:44;;;;;;;0.80;0.80;;;20.10;56.70;;;;;;4952726;28;20499;-86
2021/06/07 08:50:12;;;;;;;1.23;0.95;;;20.20;56.70;;;;;;4950588;28;20034;-87
2021/06/07 08:52:43;;;;;;;0.70;0.70;;;20.30;56.60;;;;;;4955312;28;20034;-84
2021/06/07 08:55:10;;;;;;;1.10;1.00;;;20.40;56.60;;;;;;4946170;28;20023;-81
2021/06/07 08:57:41;;;;;;;0.75;0.75;;;20.50;56.60;;;;;;4939661;28;20360;-84
2021/06/07 09:00:08;;;;;;;0.95;0.90;;;20.60;56.70;;;;;;4957907;28;20046;-84
2021/06/07 09:02:36;;;;;;;1.15;1.00;;;20.70;56.70;;;;;;4945053;28;20027;-84
2021/06/07 09:05:03;;;;;;;1.10;0.90;;;20.80;56.60;;;;;;4943810;28;20035;-84
2021/06/07 09:07:29;;;;;;;0.80;0.75;;;20.90;56.60;;;;;;4943302;28;20039;-83
2021/06/07 09:10:12;;;;;;;0.80;0.80;;;21.00;56.60;;;;;;4959107;28;20042;-85
2021/06/07 09:12:42;;;;;;;0.82;0.77;;;21.10;56.60;;;;;;4939551;28;20490;-84
2021/06/07 09:15:13;;;;;;;0.68;0.68;;;21.20;56.50;;;;;;4953671;28;20058;-84
2021/06/07 09:17:45;;;;;;;1.02;0.90;;;21.30;56.40;;;;;;4965743;28;20057;-84
2021/06/07 09:20:19;;;;;;;0.70;0.70;;;21.40;56.40;;;;;;4922365;28;20039;-84
2021/06/07 09:22:56;;;;;;;0.70;0.70;;;21.50;56.30;;;;;;4966318;28;20022;-84
2021/06/07 09:25:29;;;;;;;1.00;0.85;;;21.60;56.10;;;;;;4964450;28;20031;-83
2021/06/07 09:28:05;;;;;;;0.90;0.90;;;21.60;56.00;;;;;;4960441;28;20114;-84
2021/06/07 09:30:43;;;;;;;0.93;0.93;;;21.80;56.00;;;;;;4966569;28;20035;-84
2021/06/07 09:33:21;;;;;;;1.15;0.73;;;21.80;55.90;;;;;;4942556;28;20031;-83
2021/06/07 09:36:21;;;;;;;0.77;0.70;;;22.00;56.00;;;;;;4974195;28;20034;-83
2021/06/07 09:39:05;;;;;;;1.40;0.80;;;22.10;56.10;;;;;;4963677;28;20472;-84
2021/06/07 09:41:47;;;;;;;0.82;0.80;;;22.20;55.90;;;;;;4953954;28;20381;-83
2021/06/07 09:44:22;;;;;;;0.60;0.60;;;22.30;55.80;;;;;;4932073;29;20039;-82
2021/06/07 09:46:48;;;;;;;1.00;0.77;;;22.40;55.70;;;;;;4957967;28;20031;-83
2021/06/07 09:49:22;;;;;;;1.02;0.80;;;22.50;55.50;;;;;;4963225;28;20035;-84
2021/06/07 09:51:57;;;;;;;0.55;0.52;;;22.60;55.50;;;;;;4929298;29;20050;-83
2021/06/07 09:54:23;;;;;;;;;;;22.70;55.40;;;;;;4970870;28;20023;-83
2021/06/07 09:56:57;;;;;;;0.60;0.60;;;22.80;55.30;;;;;;4968207;28;20363;-87
2021/06/07 09:59:25;;;;;;;0.85;0.65;;;22.90;55.10;;;;;;4963730;28;20109;-87
2021/06/07 10:01:51;;;;;;;0.85;0.77;;;22.90;55.10;;;;;;4965980;28;20384;-86
2021/06/07 10:04:17;;;;;;;0.70;0.70;;;23.00;55.10;;;;;;4977631;28;20027;-86
2021/06/07 10:06:43;;;;;;;0.82;0.60;;;23.10;55.10;;;;;;4984651;28;20372;-87
2021/06/07 10:09:11;;;;;;;0.82;0.60;;;23.20;55.10;;;;;;4958749;28;20127;-89
2021/06/07 10:11:45;;;;;;;1.23;0.80;;;23.30;55.00;;;;;;4970963;28;20031;-93
2021/06/07 10:14:15;;;;;;;;;;;23.40;54.80;;;;;;4948931;28;20054;-85
2021/06/07 10:17:02;;;;;;;1.02;0.85;;;23.50;54.70;;;;;;4977904;28;20318;-82
2021/06/07 10:22:11;;;;;;;0.73;0.73;;;23.70;53.30;;;;;;4973502;28;20070;-86
2021/06/07 10:24:37;;;;;;;1.23;1.10;;;23.80;52.40;;;;;;4969426;28;20483;-82
2021/06/07 10:27:03;;;;;;;1.42;1.00;;;23.80;51.70;;;;;;4970725;28;20049;-83
2021/06/07 10:29:43;;;;;;;1.50;0.80;;;23.90;51.10;;;;;;4960712;28;20042;-83
2021/06/07 10:32:18;;;;;;;1.00;0.80;;;24.00;50.50;;;;;;4966089;28;20463;-83
2021/06/07 10:34:53;;;;;;;1.60;0.90;;;24.00;49.90;;;;;;4983215;28;20042;-82
2021/06/07 10:37:20;;;;;;;1.52;1.08;;;24.10;49.40;;;;;;4948775;28;20114;-83
2021/06/07 10:39:46;;;;;;;1.00;0.90;;;24.20;49.10;;;;;;4969969;28;20038;-84
2021/06/07 10:42:17;;;;;;;1.08;0.80;;;24.30;48.90;;;;;;4978270;28;20468;-83
2021/06/07 10:44:49;;;;;;;1.20;0.70;;;24.40;48.60;;;;;;4938732;28;20047;-84
2021/06/07 10:47:20;;;;;;;1.17;0.98;;;24.40;48.00;;;;;;4949422;28;20475;-84
2021/06/07 10:49:54;;;;;;;1.65;0.88;;;24.50;47.80;;;;;;4961654;28;20090;-83
2021/06/07 10:52:25;;;;;;;1.50;0.90;;;24.60;47.30;;;;;;4937721;28;20031;-85
2021/06/07 10:54:58;;;;;;;0.88;0.77;;;24.70;47.00;;;;;;4963716;28;20098;-84
2021/06/07 10:57:36;;;;;;;1.10;1.00;;;24.80;46.70;;;;;;4946819;28;20023;-85
2021/06/07 11:00:23;;;;;;;1.48;1.00;;;24.80;46.40;;;;;;4951895;28;20034;-83
2021/06/07 11:02:53;;;;;;;1.58;0.80;;;24.90;46.50;;;;;;4935236;28;20121;-83
2021/06/07 11:05:26;;;;;;;1.02;0.80;;;24.90;46.40;;;;;;4946192;28;20031;-87
2021/06/07 11:08:05;;;;;;;1.30;0.77;;;25.00;46.20;;;;;;4967647;28;20431;-83
2021/06/07 11:10:33;;;;;;;1.25;0.95;;;25.10;46.00;;;;;;4969469;28;20464;-83
2021/06/07 11:13:05;;;;;;;1.92;1.00;;;25.10;45.70;;;;;;4962559;28;20109;-83
2021/06/07 11:15:38;;;;;;;1.33;0.98;;;25.10;45.40;;;;;;4973072;28;20078;-83
2021/06/07 11:18:35;;;;;;;0.70;0.70;;;25.20;45.30;;;;;;4976262;28;20023;-83
2021/06/07 11:21:07;;;;;;;1.00;0.90;;;25.20;45.10;;;;;;4966142;28;20058;-84
2021/06/07 11:23:37;;;;;;;0.80;0.80;;;25.30;45.20;;;;;;4965712;28;20026;-87
2021/06/07 11:26:05;;;;;;;1.38;0.90;;;25.30;45.10;;;;;;4960754;28;20019;-84
2021/06/07 11:28:47;;;;;;;1.30;0.80;;;25.30;45.00;;;;;;4975417;28;20414;-85
2021/06/07 11:31:19;;;;;;;0.80;0.70;;;25.30;44.70;;;;;;4956234;28;20495;-82
2021/06/07 11:33:56;;;;;;;1.08;0.80;;;25.30;44.50;;;;;;4957300;28;20027;-86
2021/06/07 11:36:49;;;;;;;0.90;0.73;;;25.30;44.50;;;;;;4928995;28;20031;-82
2021/06/07 11:39:24;;;;;;;0.75;0.75;;;25.40;44.60;;;;;;4953887;28;20353;-82
2021/06/07 11:41:56;;;;;;;2.88;1.00;;;25.40;44.40;;;;;;4953897;28;20038;-83
2021/06/07 11:44:52;;;;;;;1.10;0.90;;;25.40;44.30;;;;;;4955181;28;20510;-86
2021/06/07 11:47:25;;;;;;;0.80;0.80;;;25.40;44.20;;;;;;4938066;28;20311;-84
2021/06/07 11:50:02;;;;;;;0.88;0.80;;;25.40;44.50;;;;;;4971827;28;20046;-86
2021/06/07 11:52:47;;;;;;;1.15;0.73;;;25.40;44.90;;;;;;4948986;28;20023;-87
2021/06/07 11:55:32;;;;;;;1.20;0.70;;;25.50;45.30;;;;;;4969251;28;20042;-87
2021/06/07 11:58:16;;;;;;;1.42;0.82;;;25.50;45.90;;;;;;4958325;28;20027;-86
2021/06/07 12:00:46;;;;;;;0.93;0.70;;;25.60;46.30;;;;;;4968490;28;20039;-88
2021/06/07 12:03:14;;;;;;;0.60;0.60;;;25.60;46.60;;;;;;4955876;28;20026;-87
2021/06/07 12:05:43;;;;;;;0.85;0.77;;;25.60;47.60;;;;;;4946744;28;20031;-88
2021/06/07 12:08:11;;;;;;;1.05;0.80;;;25.60;47.20;;;;;;4923034;28;20460;-88
2021/06/07 12:10:41;;;;;;;1.05;0.70;;;25.70;47.60;;;;;;4956286;28;20471;-84
2021/06/07 12:13:25;;;;;;;0.90;0.75;;;25.70;47.70;;;;;;4936836;28;20027;-86
2021/06/07 12:15:54;;;;;;;1.40;0.87;;;25.70;48.10;;;;;;4929039;28;20451;-88
2021/06/07 12:18:38;;;;;;;1.00;0.57;;;25.70;48.20;;;;;;4959406;28;20062;-87
2021/06/07 12:21:07;;;;;;;0.77;0.70;;;25.70;48.40;;;;;;4951647;28;20053;-87
2021/06/07 12:23:41;;;;;;;1.10;0.60;;;25.80;48.50;;;;;;4937673;28;20055;-89
2021/06/07 12:29:28;;;;;;;0.68;0.68;;;25.80;48.80;;;;;;4964515;28;20058;-88
2021/06/07 12:32:08;;;;;;;1.10;0.90;;;25.80;47.80;;;;;;4946110;28;20055;-88
2021/06/07 12:34:36;;;;;;;1.85;0.98;;;25.80;47.20;;;;;;4957729;28;20033;-88
2021/06/07 12:37:03;;;;;;;0.80;0.80;;;25.70;46.90;;;;;;4944566;28;20027;-85
2021/06/07 12:39:29;;;;;;;0.88;0.82;;;25.70;46.40;;;;;;4974594;28;20066;-85
2021/06/07 12:41:55;;;;;;;1.48;1.00;;;25.70;46.00;;;;;;4953242;28;20019;-85
2021/06/07 12:44:22;;;;;;;0.80;0.80;;;25.70;45.60;;;;;;4975103;28;20506;-83
2021/06/07 12:46:54;;;;;;;1.45;1.00;;;25.70;45.20;;;;;;4974991;28;20035;-87
2021/06/07 12:49:28;;;;;;;0.95;0.75;;;25.70;44.80;;;;;;4954007;29;20051;-84
2021/06/07 12:52:03;;;;;;;1.10;0.80;;;25.60;45.30;;;;;;4962378;28;20141;-82
2021/06/07 12:54:33;;;;;;;1.13;0.80;;;25.60;44.40;;;;;;4955514;28;20039;-83
2021/06/07 12:57:02;;;;;;;1.23;0.80;;;25.60;44.10;;;;;;4939813;28;20027;-83
2021/06/07 12:59:30;;;;;;;0.93;0.68;;;25.60;43.80;;;;;;4944186;29;20051;-82
2021/06/07 13:01:58;;;;;;;0.95;0.80;;;25.50;43.60;;;;;;4955767;28;20538;-85